Time;durP1;ratioP1;P1;durP2;ratioP2;P2;SDS_P1;SDS_P2;PMS_P1;PMS_P2;Temp;Humidity;BMP_temperature;BMP_pressure;BME280_temperature;BME280_humidity;BME280_pressure;Samples;Min_cycle;Max_cycle;Signal;HPM_P1;HPM_P2
2023/09/24 00:02:04;;;;;;;2.60;2.00;;;13.70;99.90;;;;;;4994393;28;20438;-71
2023/09/24 00:04:30;;;;;;;2.80;1.60;;;13.60;99.90;;;;;;4994004;28;20454;-71
2023/09/24 00:06:56;;;;;;;2.87;1.70;;;13.60;99.90;;;;;;4994071;28;20415;-71
2023/09/24 00:09:21;;;;;;;3.03;1.93;;;13.60;99.90;;;;;;4993883;28;20750;-71
2023/09/24 00:11:47;;;;;;;5.63;2.10;;;13.60;99.90;;;;;;4993909;28;20292;-71
2023/09/24 00:14:13;;;;;;;2.90;1.77;;;13.60;99.90;;;;;;4992696;28;20173;-71
2023/09/24 00:16:40;;;;;;;3.97;1.90;;;13.50;99.90;;;;;;4994109;28;20415;-70
2023/09/24 00:19:06;;;;;;;3.40;1.80;;;13.40;99.90;;;;;;4994127;28;20403;-72
2023/09/24 00:21:32;;;;;;;2.67;1.90;;;13.40;99.90;;;;;;4993992;28;20530;-72
2023/09/24 00:23:57;;;;;;;2.50;1.83;;;13.30;99.90;;;;;;4993704;28;20501;-72
2023/09/24 00:26:24;;;;;;;4.60;1.87;;;13.20;99.90;;;;;;4993719;28;20508;-72
2023/09/24 00:28:50;;;;;;;2.20;1.73;;;13.10;99.90;;;;;;4993944;28;20166;-72
2023/09/24 00:31:16;;;;;;;3.97;2.23;;;13.20;99.90;;;;;;4992412;28;20426;-72
2023/09/24 00:33:41;;;;;;;5.00;1.90;;;13.20;99.90;;;;;;4993744;28;20416;-72
2023/09/24 00:36:07;;;;;;;3.73;1.80;;;13.20;99.90;;;;;;4993710;28;20214;-72
2023/09/24 00:38:33;;;;;;;3.33;1.97;;;13.20;99.90;;;;;;4994376;28;20182;-71
2023/09/24 00:40:58;;;;;;;3.73;1.90;;;13.20;99.90;;;;;;4993595;28;20275;-72
2023/09/24 00:43:29;;;;;;;2.67;1.73;;;13.20;99.90;;;;;;4993590;28;20171;-71
2023/09/24 00:45:57;;;;;;;2.40;2.03;;;13.10;99.90;;;;;;4993639;28;20615;-72
2023/09/24 00:48:28;;;;;;;5.20;1.97;;;13.10;99.90;;;;;;4994014;28;20407;-71
2023/09/24 00:50:58;;;;;;;2.67;1.77;;;13.10;99.90;;;;;;4993427;28;20858;-72
2023/09/24 00:53:28;;;;;;;2.93;2.07;;;13.10;99.90;;;;;;4992261;28;20419;-70
2023/09/24 00:55:55;;;;;;;2.40;1.63;;;13.10;99.90;;;;;;4993499;28;20493;-72
2023/09/24 00:58:23;;;;;;;3.03;1.83;;;13.00;99.90;;;;;;4993549;28;20505;-71
2023/09/24 01:00:51;;;;;;;2.80;1.80;;;13.00;99.90;;;;;;4993599;28;20967;-72
2023/09/24 01:03:18;;;;;;;2.63;2.27;;;13.00;99.90;;;;;;4993196;28;20444;-71
2023/09/24 01:05:44;;;;;;;5.63;2.30;;;12.90;99.90;;;;;;4994450;28;20449;-71
2023/09/24 01:08:10;;;;;;;3.60;1.80;;;12.70;99.90;;;;;;4997973;28;20463;-71
2023/09/24 01:10:36;;;;;;;3.20;2.10;;;12.80;99.90;;;;;;4996202;28;20462;-72
2023/09/24 01:13:04;;;;;;;2.97;2.17;;;12.80;99.90;;;;;;4997466;28;20229;-71
2023/09/24 01:15:31;;;;;;;3.13;2.33;;;12.80;99.90;;;;;;4997315;28;20172;-72
2023/09/24 01:17:57;;;;;;;2.57;1.90;;;12.90;99.90;;;;;;4997195;28;20915;-70
2023/09/24 01:20:24;;;;;;;3.13;2.17;;;12.90;99.90;;;;;;4996906;28;20429;-71
2023/09/24 01:22:50;;;;;;;2.10;1.53;;;12.90;99.90;;;;;;4997103;28;20499;-71
2023/09/24 01:25:19;;;;;;;4.00;1.63;;;12.80;99.90;;;;;;4996877;28;20489;-71
2023/09/24 01:27:46;;;;;;;1.50;1.40;;;12.80;99.90;;;;;;4997268;28;20771;-71
2023/09/24 01:30:13;;;;;;;4.33;1.93;;;12.80;99.90;;;;;;4997084;28;20893;-71
2023/09/24 01:32:40;;;;;;;5.37;2.13;;;12.80;99.90;;;;;;4996739;28;20422;-70
2023/09/24 01:35:06;;;;;;;2.20;2.00;;;12.80;99.90;;;;;;4996964;28;20409;-71
2023/09/24 01:37:34;;;;;;;3.10;1.57;;;12.80;99.90;;;;;;4996725;28;20418;-71
2023/09/24 01:40:21;;;;;;;3.13;2.20;;;12.80;99.90;;;;;;4997342;28;20446;-71
2023/09/24 01:42:47;;;;;;;2.23;1.90;;;12.80;99.90;;;;;;4998484;28;20451;-71
2023/09/24 01:45:13;;;;;;;1.63;1.53;;;12.80;99.90;;;;;;4995216;28;20447;-71
2023/09/24 01:47:39;;;;;;;3.10;1.60;;;12.80;99.90;;;;;;4996612;28;20165;-71
2023/09/24 01:50:08;;;;;;;4.03;2.13;;;12.80;99.90;;;;;;4995209;28;20463;-71
2023/09/24 01:52:35;;;;;;;2.70;1.90;;;12.80;99.90;;;;;;4996893;28;20428;-71
2023/09/24 01:55:01;;;;;;;2.27;1.50;;;12.80;99.90;;;;;;4996350;28;20937;-71
2023/09/24 01:57:28;;;;;;;3.20;1.73;;;12.80;99.90;;;;;;4996321;28;20419;-71
2023/09/24 01:59:56;;;;;;;3.40;1.93;;;12.60;99.90;;;;;;4996261;28;20420;-71
2023/09/24 02:02:21;;;;;;;2.40;1.80;;;12.60;99.90;;;;;;4996293;28;20534;-71
2023/09/24 02:04:48;;;;;;;2.80;1.77;;;12.60;99.90;;;;;;4996442;28;20552;-71
2023/09/24 02:07:15;;;;;;;2.53;1.80;;;12.50;99.90;;;;;;4996580;28;20211;-71
2023/09/24 02:09:41;;;;;;;3.43;1.53;;;12.50;99.90;;;;;;4995612;28;20415;-71
2023/09/24 02:12:09;;;;;;;5.20;2.10;;;12.60;99.90;;;;;;4996020;28;20518;-71
2023/09/24 02:14:34;;;;;;;3.30;2.10;;;12.60;99.90;;;;;;4996076;28;20168;-71
2023/09/24 02:17:05;;;;;;;2.40;1.80;;;12.60;99.90;;;;;;4997383;28;20413;-70
2023/09/24 02:19:31;;;;;;;3.23;2.13;;;12.60;99.90;;;;;;4996441;28;20231;-70
2023/09/24 02:21:56;;;;;;;2.80;1.50;;;12.50;99.90;;;;;;4996112;28;20446;-70
2023/09/24 02:24:22;;;;;;;4.03;2.07;;;12.50;99.90;;;;;;4994491;28;20447;-71
2023/09/24 02:26:47;;;;;;;2.03;1.80;;;12.50;99.90;;;;;;4995861;28;20255;-70
2023/09/24 02:29:16;;;;;;;2.70;1.77;;;12.50;99.90;;;;;;4996118;28;20166;-70
2023/09/24 02:31:41;;;;;;;2.90;1.90;;;12.60;99.90;;;;;;4995811;28;20458;-70
2023/09/24 02:34:07;;;;;;;2.90;1.63;;;12.50;99.90;;;;;;4994453;28;20483;-71
2023/09/24 02:36:32;;;;;;;2.40;1.70;;;12.40;99.90;;;;;;4995815;28;20620;-70
2023/09/24 02:38:58;;;;;;;2.03;1.83;;;12.40;99.90;;;;;;4995634;28;20529;-71
2023/09/24 02:41:24;;;;;;;4.77;2.17;;;12.30;99.90;;;;;;4996126;28;20590;-69
2023/09/24 02:43:49;;;;;;;2.87;2.60;;;12.30;99.90;;;;;;4995571;28;20278;-70
2023/09/24 02:46:15;;;;;;;4.20;2.50;;;12.30;99.90;;;;;;4995498;28;20187;-70
2023/09/24 02:48:44;;;;;;;2.27;1.80;;;12.30;99.90;;;;;;4995722;28;20206;-72
2023/09/24 02:51:12;;;;;;;2.47;1.83;;;12.30;99.90;;;;;;4996289;28;20307;-71
2023/09/24 02:53:38;;;;;;;2.97;1.97;;;12.30;99.90;;;;;;4995405;28;20489;-71
2023/09/24 02:56:04;;;;;;;2.17;1.80;;;12.30;99.90;;;;;;4995347;28;20442;-72
2023/09/24 02:58:30;;;;;;;2.23;2.00;;;12.20;99.90;;;;;;4995303;28;20179;-71
2023/09/24 03:00:57;;;;;;;3.40;1.90;;;12.20;99.90;;;;;;4995210;28;20431;-71
2023/09/24 03:03:22;;;;;;;2.53;2.03;;;12.20;99.90;;;;;;4995996;28;20973;-71
2023/09/24 03:05:48;;;;;;;2.17;1.40;;;12.20;99.90;;;;;;4997092;28;20451;-71
2023/09/24 03:08:17;;;;;;;2.23;2.03;;;12.10;99.90;;;;;;4994754;28;20174;-71
2023/09/24 03:10:43;;;;;;;4.20;2.10;;;12.20;99.90;;;;;;4994538;28;20199;-72
2023/09/24 03:13:09;;;;;;;2.33;2.00;;;12.10;99.90;;;;;;4995129;28;20786;-72
2023/09/24 03:15:34;;;;;;;2.20;1.97;;;12.20;99.90;;;;;;4995295;28;20216;-72
2023/09/24 03:18:01;;;;;;;5.53;2.20;;;12.20;99.90;;;;;;4995840;28;20180;-71
2023/09/24 03:20:27;;;;;;;2.03;1.60;;;12.20;99.90;;;;;;4994842;28;20211;-71
2023/09/24 03:22:55;;;;;;;2.33;1.83;;;12.20;99.90;;;;;;4995183;28;20412;-72
2023/09/24 03:25:26;;;;;;;2.70;2.00;;;12.10;99.90;;;;;;4993495;28;20539;-72
2023/09/24 03:27:54;;;;;;;3.80;2.00;;;12.00;99.90;;;;;;4993489;28;20411;-71
2023/09/24 03:30:21;;;;;;;2.50;1.50;;;12.00;99.90;;;;;;4994960;28;20454;-72
2023/09/24 03:32:48;;;;;;;2.43;1.70;;;12.00;99.90;;;;;;4995095;28;20412;-71
2023/09/24 03:35:15;;;;;;;2.07;1.77;;;12.00;99.90;;;;;;4993237;28;20422;-71
2023/09/24 03:37:44;;;;;;;4.87;2.30;;;12.10;99.90;;;;;;4994618;28;20447;-70
2023/09/24 03:40:12;;;;;;;2.20;1.97;;;12.10;99.90;;;;;;4994695;28;20543;-72
2023/09/24 03:42:38;;;;;;;2.80;2.20;;;12.00;99.90;;;;;;4994454;28;20419;-71
2023/09/24 03:45:09;;;;;;;3.50;2.00;;;12.00;99.90;;;;;;4993042;28;20443;-71
2023/09/24 03:47:36;;;;;;;3.50;2.10;;;12.10;99.90;;;;;;4994371;28;20890;-71
2023/09/24 03:50:03;;;;;;;3.10;2.07;;;12.10;99.90;;;;;;4992601;28;20437;-71
2023/09/24 03:52:30;;;;;;;3.23;1.60;;;12.10;99.90;;;;;;4994364;28;20417;-71
2023/09/24 03:54:57;;;;;;;2.80;2.50;;;12.10;99.90;;;;;;4993797;28;20502;-70
2023/09/24 03:57:27;;;;;;;2.40;1.70;;;12.00;99.90;;;;;;4994845;28;20404;-71
2023/09/24 03:59:54;;;;;;;2.97;2.50;;;12.00;99.90;;;;;;4994501;28;20392;-71
2023/09/24 04:02:19;;;;;;;2.13;1.67;;;12.00;99.90;;;;;;4994662;28;20790;-71
2023/09/24 04:04:45;;;;;;;5.03;2.97;;;11.90;99.90;;;;;;4993975;28;20400;-71
2023/09/24 04:07:10;;;;;;;6.03;2.40;;;11.90;99.90;;;;;;4994142;28;20176;-71
2023/09/24 04:09:36;;;;;;;2.23;2.03;;;11.90;99.90;;;;;;4993929;28;20206;-71
2023/09/24 04:12:04;;;;;;;4.63;2.10;;;11.90;99.90;;;;;;4993900;28;20256;-71
2023/09/24 04:14:30;;;;;;;4.00;1.93;;;11.90;99.90;;;;;;4993853;28;20205;-71
2023/09/24 04:16:56;;;;;;;2.97;2.40;;;11.90;99.90;;;;;;4992594;28;20419;-71
2023/09/24 04:19:23;;;;;;;3.00;1.57;;;11.90;99.90;;;;;;4994363;28;20554;-71
2023/09/24 04:21:49;;;;;;;3.10;1.77;;;11.80;99.90;;;;;;4993950;28;20919;-72
2023/09/24 04:24:14;;;;;;;2.70;2.17;;;11.80;99.90;;;;;;4994117;28;20413;-71
2023/09/24 04:26:40;;;;;;;4.40;2.10;;;11.80;99.90;;;;;;4994146;28;20207;-71
2023/09/24 04:29:05;;;;;;;2.47;1.87;;;11.80;99.90;;;;;;4994239;28;20176;-72
2023/09/24 04:31:31;;;;;;;3.00;2.20;;;11.70;99.90;;;;;;4992712;28;20198;-72
2023/09/24 04:33:57;;;;;;;2.43;2.07;;;11.70;99.90;;;;;;4992375;28;20218;-69
2023/09/24 04:36:22;;;;;;;2.00;1.57;;;11.70;99.90;;;;;;4991261;28;20174;-70
2023/09/24 04:38:48;;;;;;;2.30;1.97;;;11.60;99.90;;;;;;4991993;28;20173;-70
2023/09/24 04:41:15;;;;;;;7.50;2.80;;;11.60;99.90;;;;;;4993018;28;20337;-70
2023/09/24 04:43:42;;;;;;;2.50;2.20;;;11.60;99.90;;;;;;4993451;28;20167;-72
2023/09/24 04:46:07;;;;;;;2.33;2.13;;;11.60;99.90;;;;;;4993528;28;20929;-71
2023/09/24 04:48:33;;;;;;;3.10;2.43;;;11.70;99.90;;;;;;4993741;28;20500;-71
2023/09/24 04:50:59;;;;;;;3.93;2.40;;;11.70;99.90;;;;;;5021448;23;20258;-72
2023/09/24 04:53:25;;;;;;;5.93;2.50;;;11.70;99.90;;;;;;5012768;28;20430;-71
2023/09/24 04:55:51;;;;;;;3.20;2.20;;;11.70;99.90;;;;;;5012623;28;20457;-72
2023/09/24 04:58:16;;;;;;;2.93;2.53;;;11.70;99.90;;;;;;5003345;28;20187;-72
2023/09/24 05:00:42;;;;;;;3.60;2.80;;;11.60;99.90;;;;;;5003350;28;20234;-72
2023/09/24 05:03:07;;;;;;;2.20;2.00;;;11.60;99.90;;;;;;5003409;28;20200;-71
2023/09/24 05:05:33;;;;;;;3.00;2.60;;;11.60;99.90;;;;;;5003225;28;20617;-72
2023/09/24 05:08:02;;;;;;;3.30;2.80;;;11.60;99.90;;;;;;5001828;28;20658;-72
2023/09/24 05:10:27;;;;;;;3.20;2.40;;;11.60;99.90;;;;;;5002799;28;20178;-72
2023/09/24 05:12:53;;;;;;;3.30;2.00;;;11.60;99.90;;;;;;5002707;28;20420;-72
2023/09/24 05:15:19;;;;;;;5.67;2.80;;;11.60;99.90;;;;;;5002820;28;20201;-72
2023/09/24 05:17:44;;;;;;;3.23;2.20;;;11.50;99.90;;;;;;5001770;28;20180;-73
2023/09/24 05:20:10;;;;;;;3.60;2.50;;;11.50;99.90;;;;;;5002880;28;20235;-73
2023/09/24 05:22:36;;;;;;;4.43;2.30;;;11.60;99.90;;;;;;5003024;28;20192;-72
2023/09/24 05:25:02;;;;;;;3.23;2.50;;;11.50;99.90;;;;;;5002792;28;20455;-74
2023/09/24 05:27:29;;;;;;;3.57;2.23;;;11.50;99.90;;;;;;5003035;28;20271;-72
2023/09/24 05:29:55;;;;;;;3.30;3.00;;;11.50;99.90;;;;;;5003133;28;20194;-71
2023/09/24 05:32:20;;;;;;;3.03;2.73;;;11.50;99.90;;;;;;5002922;28;20427;-71
2023/09/24 05:34:52;;;;;;;3.33;2.53;;;11.50;99.90;;;;;;5002586;28;20229;-73
2023/09/24 05:37:17;;;;;;;4.00;2.10;;;11.60;99.90;;;;;;5003154;28;20544;-71
2023/09/24 05:39:43;;;;;;;2.43;2.00;;;11.60;99.90;;;;;;5002847;28;20416;-72
2023/09/24 05:42:09;;;;;;;6.90;2.43;;;11.50;99.90;;;;;;5001358;28;21002;-72
2023/09/24 05:44:34;;;;;;;2.97;2.63;;;11.50;99.90;;;;;;5002840;28;20198;-73
2023/09/24 05:47:00;;;;;;;6.07;3.37;;;11.50;99.90;;;;;;5002667;28;20178;-71
2023/09/24 05:49:26;;;;;;;2.60;2.40;;;11.60;99.90;;;;;;5002658;28;20572;-72
2023/09/24 05:51:52;;;;;;;2.70;2.10;;;11.70;99.90;;;;;;5001013;28;20587;-73
2023/09/24 05:54:17;;;;;;;6.70;1.83;;;11.70;99.90;;;;;;5006110;28;20308;-72
2023/09/24 05:56:43;;;;;;;5.00;3.43;;;11.80;99.90;;;;;;5005983;28;20187;-73
2023/09/24 05:59:09;;;;;;;4.43;3.07;;;11.80;99.90;;;;;;5005943;28;20175;-72
2023/09/24 06:01:34;;;;;;;3.93;2.63;;;11.80;99.90;;;;;;5006011;28;20839;-73
2023/09/24 06:04:00;;;;;;;3.40;2.50;;;11.80;99.90;;;;;;5004566;28;20186;-72
2023/09/24 06:06:26;;;;;;;2.93;2.60;;;11.80;99.90;;;;;;5005678;28;20729;-75
2023/09/24 06:08:54;;;;;;;3.50;2.30;;;11.80;99.90;;;;;;5005786;28;20294;-72
2023/09/24 06:11:20;;;;;;;2.23;2.03;;;11.90;99.90;;;;;;5013455;28;20207;-72
2023/09/24 06:13:46;;;;;;;2.20;2.10;;;11.90;99.90;;;;;;5015120;28;20489;-72
2023/09/24 06:16:12;;;;;;;2.87;2.20;;;12.00;99.90;;;;;;5015129;28;20197;-72
2023/09/24 06:18:38;;;;;;;4.70;2.03;;;12.00;99.90;;;;;;5015375;28;20577;-72
2023/09/24 06:21:04;;;;;;;2.80;2.23;;;12.00;99.90;;;;;;5015184;28;20452;-72
2023/09/24 06:23:30;;;;;;;2.90;2.50;;;12.10;99.90;;;;;;5015410;28;20521;-71
2023/09/24 06:25:57;;;;;;;4.07;2.77;;;12.10;99.90;;;;;;5014967;28;20653;-72
2023/09/24 06:28:24;;;;;;;2.57;1.70;;;12.10;99.90;;;;;;5015209;28;20423;-72
2023/09/24 06:30:58;;;;;;;5.43;2.10;;;12.20;99.90;;;;;;5014757;28;20490;-72
2023/09/24 06:33:24;;;;;;;3.93;2.73;;;12.20;99.90;;;;;;5012177;28;20469;-71
2023/09/24 06:35:49;;;;;;;3.50;2.97;;;12.30;99.90;;;;;;5005284;28;20462;-71
2023/09/24 06:38:15;;;;;;;2.80;2.30;;;12.30;99.90;;;;;;5005590;28;20712;-72
2023/09/24 06:40:40;;;;;;;3.23;2.30;;;12.40;99.90;;;;;;5005462;28;20238;-72
2023/09/24 06:43:06;;;;;;;2.77;2.47;;;12.40;99.90;;;;;;5005443;28;20670;-72
2023/09/24 06:45:31;;;;;;;5.20;2.70;;;12.50;99.90;;;;;;5006091;28;20176;-73
2023/09/24 06:47:59;;;;;;;2.83;2.30;;;12.50;99.90;;;;;;5013318;28;20180;-73
2023/09/24 06:50:25;;;;;;;2.43;2.23;;;12.70;99.90;;;;;;5014503;28;20173;-73
2023/09/24 06:52:50;;;;;;;2.43;2.20;;;12.80;99.90;;;;;;5014893;28;20553;-73
2023/09/24 06:55:16;;;;;;;3.93;2.73;;;12.80;99.90;;;;;;5014523;28;20551;-73
2023/09/24 06:57:41;;;;;;;3.50;3.00;;;12.90;99.90;;;;;;5014669;28;20183;-72
2023/09/24 07:00:09;;;;;;;2.43;2.23;;;13.00;99.90;;;;;;5014638;28;20172;-72
2023/09/24 07:02:35;;;;;;;3.13;2.47;;;13.10;99.90;;;;;;5013950;28;20197;-72
2023/09/24 07:05:00;;;;;;;3.80;2.57;;;13.30;99.90;;;;;;5014410;28;20402;-73
2023/09/24 07:07:27;;;;;;;5.47;2.17;;;13.50;99.90;;;;;;5012921;28;20211;-73
2023/09/24 07:09:53;;;;;;;3.70;3.17;;;13.60;99.90;;;;;;5012788;28;20206;-72
2023/09/24 07:12:18;;;;;;;4.40;3.00;;;13.60;99.90;;;;;;5014020;28;21014;-73
2023/09/24 07:14:44;;;;;;;3.50;3.20;;;13.60;99.90;;;;;;5014108;28;20697;-73
2023/09/24 07:17:09;;;;;;;2.63;2.43;;;13.70;99.90;;;;;;5014134;28;20176;-73
2023/09/24 07:19:36;;;;;;;5.63;2.50;;;13.80;99.90;;;;;;5014080;28;20644;-73
2023/09/24 07:22:02;;;;;;;3.80;3.50;;;13.90;99.90;;;;;;5013837;28;20188;-73
2023/09/24 07:24:28;;;;;;;3.10;2.77;;;13.80;99.90;;;;;;5013177;28;20407;-73
2023/09/24 07:26:54;;;;;;;3.83;3.07;;;14.00;99.90;;;;;;5013885;28;20411;-73
2023/09/24 07:29:20;;;;;;;3.30;3.00;;;14.10;99.90;;;;;;5013863;28;20428;-73
2023/09/24 07:31:45;;;;;;;4.90;3.30;;;14.10;99.90;;;;;;5013647;28;20203;-73
2023/09/24 07:34:11;;;;;;;3.77;3.20;;;14.10;99.90;;;;;;5014090;28;20183;-72
2023/09/24 07:36:36;;;;;;;3.93;3.50;;;14.10;99.90;;;;;;5013493;28;20178;-73
2023/09/24 07:39:03;;;;;;;5.47;3.10;;;14.00;99.90;;;;;;5013948;28;20168;-73
2023/09/24 07:41:29;;;;;;;3.50;3.07;;;14.20;99.90;;;;;;5013629;28;20191;-73
2023/09/24 07:43:54;;;;;;;4.10;3.50;;;14.40;99.90;;;;;;5013630;28;20408;-73
2023/09/24 07:46:20;;;;;;;4.00;3.10;;;14.50;99.90;;;;;;5013470;28;20624;-72
2023/09/24 07:48:48;;;;;;;4.60;3.43;;;14.60;99.90;;;;;;5013803;28;20177;-72
2023/09/24 07:51:16;;;;;;;6.00;3.77;;;14.70;99.90;;;;;;5011868;28;20410;-73
2023/09/24 07:53:42;;;;;;;3.80;3.27;;;14.90;99.90;;;;;;5013617;28;20426;-72
2023/09/24 07:56:09;;;;;;;4.00;3.20;;;14.50;99.90;;;;;;5013590;28;20460;-73
2023/09/24 07:58:36;;;;;;;4.87;3.77;;;14.20;99.90;;;;;;5013710;28;20183;-72
2023/09/24 08:01:04;;;;;;;4.23;3.47;;;14.40;99.90;;;;;;5013467;28;20436;-72
2023/09/24 08:03:30;;;;;;;3.47;3.13;;;14.50;99.90;;;;;;5010767;28;20435;-72
2023/09/24 08:05:56;;;;;;;4.20;3.80;;;14.30;99.90;;;;;;5011354;28;20422;-72
2023/09/24 08:08:23;;;;;;;4.90;3.00;;;14.20;99.90;;;;;;5012112;28;20407;-73
2023/09/24 08:10:50;;;;;;;3.70;3.40;;;14.30;99.90;;;;;;5013362;28;20447;-72
2023/09/24 08:13:16;;;;;;;4.73;3.10;;;14.30;99.90;;;;;;5012571;28;20916;-73
2023/09/24 08:15:41;;;;;;;4.40;2.90;;;14.40;99.90;;;;;;5011046;28;20454;-73
2023/09/24 08:18:09;;;;;;;4.10;3.23;;;14.50;99.90;;;;;;5013043;28;21029;-71
2023/09/24 08:20:37;;;;;;;3.37;3.00;;;14.60;99.90;;;;;;5013087;28;20249;-73
2023/09/24 08:23:03;;;;;;;4.80;3.13;;;14.80;99.90;;;;;;5012958;28;20407;-72
2023/09/24 08:25:30;;;;;;;4.50;3.40;;;14.70;99.90;;;;;;5013143;28;20855;-72
2023/09/24 08:27:56;;;;;;;3.60;3.30;;;14.60;99.90;;;;;;5013149;28;20415;-72
2023/09/24 08:30:21;;;;;;;4.00;3.70;;;14.70;99.90;;;;;;5013727;28;20767;-73
2023/09/24 08:32:47;;;;;;;3.30;2.80;;;14.70;99.90;;;;;;5013386;28;20179;-73
2023/09/24 08:35:12;;;;;;;3.30;2.70;;;14.90;99.90;;;;;;5013479;28;20191;-72
2023/09/24 08:37:38;;;;;;;4.57;3.20;;;15.20;99.90;;;;;;5013342;28;20171;-73
2023/09/24 08:40:04;;;;;;;4.27;3.07;;;15.30;99.90;;;;;;5013197;28;20246;-73
2023/09/24 08:42:32;;;;;;;3.80;3.23;;;15.20;99.90;;;;;;5011249;28;20190;-73
2023/09/24 08:45:11;;;;;;;5.13;2.60;;;15.30;99.90;;;;;;5012905;28;20404;-72
2023/09/24 08:47:38;;;;;;;6.90;3.23;;;15.40;99.90;;;;;;5012636;28;20474;-73
2023/09/24 08:50:05;;;;;;;3.70;2.93;;;15.40;99.90;;;;;;5012381;28;20405;-73
2023/09/24 08:52:37;;;;;;;3.60;2.90;;;15.50;99.90;;;;;;5012060;28;20449;-73
2023/09/24 08:55:09;;;;;;;4.00;3.03;;;15.70;99.90;;;;;;5012916;28;20488;-73
2023/09/24 08:57:35;;;;;;;2.60;2.40;;;15.80;99.90;;;;;;5012862;28;20406;-72
2023/09/24 09:00:04;;;;;;;2.23;2.07;;;15.90;99.90;;;;;;5011044;28;20953;-72
2023/09/24 09:02:30;;;;;;;2.40;2.20;;;16.20;99.90;;;;;;5012400;28;20455;-72
2023/09/24 09:04:56;;;;;;;2.80;2.20;;;16.50;99.90;;;;;;5012433;28;20940;-72
2023/09/24 09:07:21;;;;;;;3.20;2.43;;;16.50;99.90;;;;;;5012455;28;20407;-72
2023/09/24 09:09:59;;;;;;;6.40;2.90;;;16.40;99.90;;;;;;5012309;28;20494;-72
2023/09/24 09:12:26;;;;;;;3.00;2.10;;;16.30;99.90;;;;;;5012070;28;20191;-73
2023/09/24 09:14:53;;;;;;;4.47;2.10;;;16.40;99.90;;;;;;5011615;28;20443;-73
2023/09/24 09:17:19;;;;;;;2.80;2.50;;;16.60;99.90;;;;;;5012154;28;20409;-72
2023/09/24 09:19:52;;;;;;;3.17;1.93;;;16.70;99.90;;;;;;5012472;28;20399;-72
2023/09/24 09:22:22;;;;;;;2.93;2.43;;;16.50;99.90;;;;;;5012169;28;20641;-72
2023/09/24 09:25:09;;;;;;;5.30;2.77;;;16.60;99.90;;;;;;5012817;28;20434;-72
2023/09/24 09:27:35;;;;;;;3.17;2.30;;;16.60;99.90;;;;;;5014883;28;20503;-72
2023/09/24 09:30:15;;;;;;;4.03;2.40;;;16.90;99.90;;;;;;5015798;28;20490;-72
2023/09/24 09:32:45;;;;;;;2.30;1.83;;;17.00;99.90;;;;;;5015656;28;20426;-72
2023/09/24 09:35:11;;;;;;;3.63;1.67;;;17.20;99.90;;;;;;5015696;28;20449;-72
2023/09/24 09:37:38;;;;;;;4.63;2.23;;;17.10;99.90;;;;;;5016032;28;20402;-72
2023/09/24 09:40:06;;;;;;;4.37;2.27;;;16.90;99.90;;;;;;5015571;28;20438;-71
2023/09/24 09:42:35;;;;;;;2.43;1.90;;;16.90;99.90;;;;;;5015557;28;20458;-71
2023/09/24 09:45:10;;;;;;;3.00;2.07;;;17.00;99.90;;;;;;5015759;28;20806;-71
2023/09/24 09:48:07;;;;;;;2.37;2.00;;;17.10;99.90;;;;;;5015636;28;20402;-71
2023/09/24 09:50:41;;;;;;;3.60;2.40;;;17.10;99.90;;;;;;5010997;28;20754;-71
2023/09/24 09:53:09;;;;;;;3.47;2.00;;;17.10;99.90;;;;;;5015181;28;20400;-72
2023/09/24 09:55:42;;;;;;;2.80;2.10;;;17.20;99.90;;;;;;5015453;28;20446;-72
2023/09/24 09:58:10;;;;;;;2.90;2.00;;;17.30;99.90;;;;;;5014104;28;20407;-73
2023/09/24 10:00:36;;;;;;;3.83;2.33;;;17.30;99.90;;;;;;5015778;28;20410;-72
2023/09/24 10:03:03;;;;;;;2.70;2.50;;;17.30;99.90;;;;;;5015427;28;20775;-73
2023/09/24 10:05:30;;;;;;;2.70;2.10;;;17.40;99.90;;;;;;5015378;28;20415;-72
2023/09/24 10:07:56;;;;;;;4.50;3.07;;;17.50;99.90;;;;;;5015474;28;20413;-73
2023/09/24 10:10:34;;;;;;;3.47;2.93;;;17.50;99.90;;;;;;5015646;28;20854;-73
2023/09/24 10:13:01;;;;;;;5.00;2.67;;;17.60;99.90;;;;;;4995586;28;20176;-73
2023/09/24 10:15:30;;;;;;;3.67;2.70;;;17.70;99.90;;;;;;4995581;28;20474;-73
2023/09/24 10:18:11;;;;;;;5.83;2.57;;;17.90;99.90;;;;;;4995815;28;20447;-73
2023/09/24 10:20:48;;;;;;;2.90;1.83;;;18.30;99.90;;;;;;4997112;28;20479;-73
2023/09/24 10:23:29;;;;;;;3.27;2.10;;;18.20;99.90;;;;;;5015096;28;20410;-73
2023/09/24 10:26:00;;;;;;;4.07;2.43;;;18.10;99.90;;;;;;5015329;28;20482;-73
2023/09/24 10:28:48;;;;;;;2.80;2.10;;;18.40;99.90;;;;;;5015295;28;20391;-73
2023/09/24 10:31:17;;;;;;;5.63;2.10;;;18.20;99.90;;;;;;5014822;28;20422;-73
2023/09/24 10:33:59;;;;;;;3.77;2.03;;;18.30;99.90;;;;;;5014901;28;20407;-73
2023/09/24 10:36:33;;;;;;;2.23;1.93;;;18.90;99.90;;;;;;5014812;28;20957;-73
2023/09/24 10:39:14;;;;;;;3.03;1.83;;;19.40;99.90;;;;;;5012691;28;20422;-73
2023/09/24 10:42:13;;;;;;;4.13;1.70;;;20.20;99.70;;;;;;5014711;28;20506;-73
2023/09/24 10:44:39;;;;;;;2.00;1.43;;;20.40;98.20;;;;;;5014921;28;20468;-73
2023/09/24 10:47:30;;;;;;;2.87;1.83;;;21.00;97.60;;;;;;5014691;28;20812;-73
2023/09/24 10:50:05;;;;;;;3.40;1.93;;;21.30;95.50;;;;;;5011959;28;20415;-73
2023/09/24 10:52:50;;;;;;;3.33;2.00;;;20.90;94.00;;;;;;5014240;28;20504;-73
2023/09/24 10:55:17;;;;;;;3.20;2.07;;;20.90;95.50;;;;;;5014729;28;20474;-73
2023/09/24 10:57:47;;;;;;;4.23;1.93;;;20.30;96.30;;;;;;5014719;28;20410;-72
2023/09/24 11:00:15;;;;;;;4.47;2.10;;;20.00;96.40;;;;;;5014347;28;20411;-74
2023/09/24 11:02:41;;;;;;;3.30;1.50;;;20.60;95.40;;;;;;5014187;28;20467;-73
2023/09/24 11:05:07;;;;;;;3.07;1.90;;;21.40;93.70;;;;;;5012863;28;20458;-73
2023/09/24 11:07:33;;;;;;;2.60;1.87;;;22.90;91.70;;;;;;5012458;28;20195;-73
2023/09/24 11:09:59;;;;;;;2.97;1.63;;;22.80;91.60;;;;;;5013891;28;20924;-73
2023/09/24 11:12:24;;;;;;;3.30;1.90;;;23.40;90.90;;;;;;5014470;28;20741;-73
2023/09/24 11:14:57;;;;;;;5.30;1.70;;;24.20;89.40;;;;;;5013609;28;20184;-73
2023/09/24 11:17:24;;;;;;;2.90;1.90;;;24.90;87.30;;;;;;5013955;28;20655;-73
2023/09/24 11:19:50;;;;;;;4.00;1.80;;;25.60;80.10;;;;;;5014007;28;20898;-73
2023/09/24 11:22:26;;;;;;;2.07;1.50;;;26.80;76.20;;;;;;5013901;28;20438;-74
2023/09/24 11:25:13;;;;;;;2.27;1.60;;;27.80;71.20;;;;;;5013960;28;20771;-74
2023/09/24 11:27:47;;;;;;;2.10;1.90;;;28.00;67.50;;;;;;5013751;28;20513;-73
2023/09/24 11:30:15;;;;;;;3.20;1.90;;;27.40;64.20;;;;;;5012674;28;20410;-74
2023/09/24 11:32:41;;;;;;;2.67;1.30;;;26.20;66.30;;;;;;5014046;28;20426;-74
2023/09/24 11:35:06;;;;;;;1.90;1.60;;;26.10;66.30;;;;;;5013900;28;20450;-74
2023/09/24 11:37:47;;;;;;;2.10;1.50;;;26.80;63.70;;;;;;5014020;28;20499;-74
2023/09/24 11:40:37;;;;;;;3.63;2.20;;;26.30;66.60;;;;;;5038321;23;20596;-74
2023/09/24 11:43:14;;;;;;;3.63;1.70;;;27.20;63.60;;;;;;5014328;28;20459;-73
2023/09/24 11:45:50;;;;;;;3.20;1.97;;;26.60;63.80;;;;;;5014300;28;20916;-74
2023/09/24 11:48:20;;;;;;;3.30;1.93;;;26.40;63.60;;;;;;5025623;23;20519;-71
2023/09/24 11:50:54;;;;;;;3.97;2.10;;;26.70;61.60;;;;;;4993523;28;20408;-72
2023/09/24 11:53:22;;;;;;;2.40;1.37;;;27.00;61.50;;;;;;4993375;28;20399;-72
2023/09/24 11:55:48;;;;;;;3.20;1.60;;;27.70;60.10;;;;;;5002190;28;20443;-72
2023/09/24 11:58:17;;;;;;;3.30;1.90;;;27.60;58.50;;;;;;5013476;28;20803;-73
2023/09/24 12:00:43;;;;;;;2.27;1.80;;;26.30;62.50;;;;;;5013115;28;20518;-71
2023/09/24 12:03:09;;;;;;;2.00;1.40;;;27.70;59.30;;;;;;5013281;28;20472;-73
2023/09/24 12:05:35;;;;;;;1.83;1.47;;;28.00;58.10;;;;;;5002610;28;20404;-73
2023/09/24 12:08:07;;;;;;;2.20;1.47;;;27.80;58.10;;;;;;4993165;28;20769;-72
2023/09/24 12:10:34;;;;;;;1.93;1.67;;;26.10;62.50;;;;;;4993123;28;20397;-73
2023/09/24 12:13:04;;;;;;;2.10;1.30;;;26.40;62.50;;;;;;4993457;28;20443;-72
2023/09/24 12:15:30;;;;;;;1.57;1.30;;;26.70;62.30;;;;;;5002824;28;20922;-74
2023/09/24 12:17:57;;;;;;;2.20;1.40;;;28.70;58.40;;;;;;5013380;28;20533;-72
2023/09/24 12:20:23;;;;;;;2.53;1.40;;;28.40;57.90;;;;;;5013561;28;20431;-73
2023/09/24 12:22:49;;;;;;;3.60;1.27;;;28.00;59.00;;;;;;5011765;28;20981;-72
2023/09/24 12:25:14;;;;;;;2.20;1.73;;;29.00;57.70;;;;;;5005856;28;20498;-72
2023/09/24 12:27:41;;;;;;;2.60;2.17;;;29.30;56.00;;;;;;4993540;28;20783;-73
2023/09/24 12:30:10;;;;;;;3.77;2.17;;;29.00;56.40;;;;;;4993324;28;20208;-73
2023/09/24 12:32:36;;;;;;;3.10;1.50;;;29.20;55.20;;;;;;4993328;28;20444;-72
2023/09/24 12:35:07;;;;;;;2.87;1.83;;;29.80;55.70;;;;;;4998352;28;20907;-72
2023/09/24 12:37:34;;;;;;;3.23;1.60;;;30.50;53.40;;;;;;5013013;28;20204;-73
2023/09/24 12:40:00;;;;;;;3.20;1.60;;;30.50;54.50;;;;;;5013163;28;20410;-72
2023/09/24 12:42:28;;;;;;;2.50;1.80;;;28.90;53.60;;;;;;5013153;28;20414;-72
2023/09/24 12:44:54;;;;;;;3.10;1.70;;;29.00;54.90;;;;;;5008564;28;20172;-73
2023/09/24 12:47:19;;;;;;;2.80;1.43;;;29.30;54.80;;;;;;4992637;28;20451;-73
2023/09/24 12:49:46;;;;;;;2.93;2.07;;;30.50;52.40;;;;;;4993274;28;20785;-73
2023/09/24 12:52:12;;;;;;;2.50;1.70;;;32.10;52.40;;;;;;4992846;28;20174;-73